Time;durP1;ratioP1;P1;durP2;ratioP2;P2;SDS_P1;SDS_P2;PMS_P1;PMS_P2;Temp;Humidity;BMP_temperature;BMP_pressure;BME280_temperature;BME280_humidity;BME280_pressure;Samples;Min_cycle;Max_cycle;Signal;HPM_P1;HPM_P2
2022/07/23 00:01:41;;;;;;;7.60;4.45;;;33.00;28.10;;;;;;6273506;28;20066;-75
2022/07/23 00:04:42;;;;;;;6.47;4.55;;;32.90;28.20;;;;;;6273296;28;20136;-75
2022/07/23 00:07:43;;;;;;;6.85;4.38;;;32.80;28.30;;;;;;6272854;28;20037;-75
2022/07/23 00:10:44;;;;;;;7.72;4.20;;;32.80;28.40;;;;;;6274252;28;20102;-75
2022/07/23 00:13:45;;;;;;;7.43;4.35;;;32.70;28.50;;;;;;6274012;28;20033;-75
2022/07/23 00:16:46;;;;;;;8.00;4.82;;;32.70;28.60;;;;;;6275064;28;20017;-75
2022/07/23 00:19:47;;;;;;;13.02;5.15;;;32.60;28.60;;;;;;6276681;28;20120;-76
2022/07/23 00:22:53;;;;;;;6.82;4.63;;;32.60;28.70;;;;;;6273571;28;20032;-76
2022/07/23 00:25:54;;;;;;;8.27;4.63;;;32.50;28.80;;;;;;6290987;28;20355;-74
2022/07/23 00:28:55;;;;;;;10.52;5.10;;;32.50;28.90;;;;;;6274644;28;20021;-75
2022/07/23 00:31:56;;;;;;;8.90;4.80;;;32.50;29.00;;;;;;6274240;28;20036;-74
2022/07/23 00:34:57;;;;;;;6.40;4.15;;;32.50;29.00;;;;;;6273610;28;20354;-75
2022/07/23 00:37:58;;;;;;;5.10;3.72;;;32.50;29.10;;;;;;6272613;28;20025;-75
2022/07/23 00:40:59;;;;;;;11.05;4.40;;;32.50;29.10;;;;;;6289879;28;20385;-75
2022/07/23 00:44:26;;;;;;;8.82;3.97;;;32.50;29.10;;;;;;6273638;28;20033;-75
2022/07/23 00:47:27;;;;;;;7.18;3.95;;;32.50;29.20;;;;;;6258617;28;20028;-74
2022/07/23 00:50:28;;;;;;;4.38;3.65;;;32.50;29.40;;;;;;6255499;28;20026;-75
2022/07/23 00:53:31;;;;;;;8.18;3.42;;;32.50;29.60;;;;;;6255214;28;20418;-74
2022/07/23 00:56:33;;;;;;;12.07;3.90;;;32.40;29.70;;;;;;6287199;28;20386;-73
2022/07/23 00:59:34;;;;;;;9.30;3.58;;;32.30;29.90;;;;;;6287564;28;20182;-75
2022/07/23 01:02:35;;;;;;;6.43;3.40;;;32.30;30.00;;;;;;6270814;28;20025;-76
2022/07/23 01:05:36;;;;;;;8.18;3.70;;;32.30;30.60;;;;;;6271947;28;20078;-75
2022/07/23 01:08:37;;;;;;;8.90;3.60;;;32.20;30.90;;;;;;6265284;28;20459;-75
2022/07/23 01:11:39;;;;;;;5.05;3.55;;;32.20;31.30;;;;;;6272678;28;20056;-75
2022/07/23 01:14:41;;;;;;;6.55;4.15;;;32.10;31.50;;;;;;6269867;28;20047;-74
2022/07/23 01:17:42;;;;;;;7.82;3.97;;;32.10;31.70;;;;;;6289519;28;20025;-74
2022/07/23 01:20:43;;;;;;;6.10;3.35;;;32.10;32.00;;;;;;6272370;28;20056;-74
2022/07/23 01:23:44;;;;;;;9.73;3.83;;;32.20;32.20;;;;;;6288976;28;20029;-74
2022/07/23 01:26:46;;;;;;;7.55;3.70;;;32.20;32.20;;;;;;6273693;28;20029;-78
2022/07/23 01:29:47;;;;;;;8.98;3.65;;;32.20;32.30;;;;;;6287255;28;20037;-77
2022/07/23 01:32:52;;;;;;;11.13;3.67;;;32.10;32.30;;;;;;6256208;28;20021;-79
2022/07/23 01:35:53;;;;;;;5.97;3.90;;;32.10;32.40;;;;;;6263010;28;20037;-78
2022/07/23 01:38:58;;;;;;;6.88;3.78;;;32.00;32.60;;;;;;6272552;28;20044;-78
2022/07/23 01:41:59;;;;;;;6.75;3.88;;;32.00;32.60;;;;;;6272186;28;20036;-78
2022/07/23 01:45:01;;;;;;;6.90;4.38;;;31.90;32.40;;;;;;6288070;28;20358;-78
2022/07/23 01:48:02;;;;;;;12.05;4.00;;;31.90;32.10;;;;;;6260546;28;20021;-78
2022/07/23 01:51:05;;;;;;;4.90;3.53;;;32.00;32.90;;;;;;6253737;28;20025;-79
2022/07/23 01:54:16;;;;;;;13.40;4.03;;;31.90;32.50;;;;;;6269595;28;20068;-78
2022/07/23 01:57:17;;;;;;;11.35;3.85;;;31.90;32.90;;;;;;6253631;28;20040;-78
2022/07/23 02:00:18;;;;;;;4.82;3.70;;;31.90;33.10;;;;;;6269456;28;20128;-78
2022/07/23 02:03:22;;;;;;;5.15;3.85;;;31.90;33.20;;;;;;6253487;28;20029;-78
2022/07/23 02:06:23;;;;;;;6.50;3.88;;;31.80;33.30;;;;;;6271768;28;20075;-78
2022/07/23 02:09:24;;;;;;;8.82;4.47;;;31.90;33.40;;;;;;6272288;28;20017;-78
2022/07/23 02:12:25;;;;;;;8.23;4.30;;;31.90;33.20;;;;;;6272417;28;20123;-79
2022/07/23 02:15:26;;;;;;;10.88;4.55;;;31.90;33.00;;;;;;6272993;28;20028;-78
2022/07/23 02:18:27;;;;;;;6.40;4.43;;;31.90;32.70;;;;;;6293624;28;20409;-79
2022/07/23 02:21:28;;;;;;;9.27;4.07;;;31.90;32.60;;;;;;6258956;28;20351;-78
2022/07/23 02:24:30;;;;;;;6.55;3.42;;;31.90;32.90;;;;;;6276687;28;20446;-78
2022/07/23 02:27:32;;;;;;;10.25;3.65;;;31.80;33.30;;;;;;6276877;28;20461;-78
2022/07/23 02:30:33;;;;;;;6.18;3.83;;;31.80;33.70;;;;;;6276209;28;20442;-79
2022/07/23 02:33:36;;;;;;;7.80;4.10;;;31.70;33.90;;;;;;6276837;28;20523;-80
2022/07/23 02:36:39;;;;;;;18.15;4.40;;;31.70;34.50;;;;;;6276910;28;20094;-75
2022/07/23 02:39:40;;;;;;;8.60;4.43;;;31.60;35.50;;;;;;6260218;28;20032;-76
2022/07/23 02:42:41;;;;;;;7.22;3.92;;;31.50;36.30;;;;;;6275843;28;20463;-76
2022/07/23 02:45:42;;;;;;;7.85;3.92;;;31.40;36.60;;;;;;6292275;28;20033;-75
2022/07/23 02:48:44;;;;;;;5.75;3.67;;;31.40;37.00;;;;;;6275817;28;20060;-74
2022/07/23 02:51:45;;;;;;;7.18;3.90;;;31.30;37.40;;;;;;6292872;28;20052;-74
2022/07/23 02:54:46;;;;;;;8.07;3.72;;;31.30;37.70;;;;;;6275422;28;20090;-75
2022/07/23 02:57:50;;;;;;;5.75;4.28;;;31.20;37.80;;;;;;6275641;28;20025;-75
2022/07/23 03:00:53;;;;;;;7.97;3.78;;;31.20;37.70;;;;;;6259323;28;20115;-74
2022/07/23 03:03:54;;;;;;;10.07;3.70;;;31.30;37.60;;;;;;6277119;28;20372;-75
2022/07/23 03:06:56;;;;;;;7.65;3.67;;;31.30;37.30;;;;;;6289076;28;20021;-74
2022/07/23 03:09:57;;;;;;;9.13;4.40;;;31.40;37.10;;;;;;6278516;28;20048;-74
2022/07/23 03:12:58;;;;;;;7.75;4.30;;;31.50;36.80;;;;;;6275859;28;20108;-74
2022/07/23 03:15:59;;;;;;;8.13;3.90;;;31.50;36.50;;;;;;6275279;28;20059;-74
2022/07/23 03:19:00;;;;;;;5.88;3.85;;;31.50;36.30;;;;;;6276652;28;20029;-74
2022/07/23 03:22:01;;;;;;;10.07;3.78;;;31.50;36.30;;;;;;6275849;28;20033;-74
2022/07/23 03:25:04;;;;;;;5.82;3.97;;;31.60;36.20;;;;;;6290937;28;20036;-74
2022/07/23 03:28:09;;;;;;;9.25;4.22;;;31.60;35.80;;;;;;6275146;28;20033;-74
2022/07/23 03:31:10;;;;;;;6.82;4.25;;;31.70;35.50;;;;;;6275420;28;20035;-74
2022/07/23 03:34:12;;;;;;;5.72;3.83;;;31.70;35.30;;;;;;6275187;28;20568;-74
2022/07/23 03:37:13;;;;;;;7.00;4.30;;;31.80;35.20;;;;;;6272757;28;20021;-75
2022/07/23 03:40:14;;;;;;;7.78;3.55;;;31.80;35.00;;;;;;6273539;28;20064;-75
2022/07/23 03:43:15;;;;;;;8.00;4.28;;;31.80;35.10;;;;;;6272006;28;20021;-74
2022/07/23 03:46:16;;;;;;;9.32;3.88;;;31.80;35.40;;;;;;6272997;28;20028;-75
2022/07/23 03:49:17;;;;;;;12.00;4.80;;;31.70;36.40;;;;;;6272925;28;20112;-74
2022/07/23 03:52:18;;;;;;;9.07;3.92;;;31.80;36.10;;;;;;6272793;28;20421;-74
2022/07/23 03:55:19;;;;;;;11.52;3.90;;;31.70;36.30;;;;;;6272850;28;20454;-75
2022/07/23 03:58:20;;;;;;;7.90;3.80;;;31.70;36.60;;;;;;6291705;28;20041;-75
2022/07/23 04:01:21;;;;;;;8.02;4.45;;;31.60;36.70;;;;;;6275162;28;20040;-77
2022/07/23 04:04:22;;;;;;;6.72;3.78;;;31.60;36.80;;;;;;6290998;28;20060;-76
2022/07/23 04:07:23;;;;;;;8.15;4.55;;;31.60;36.70;;;;;;6291149;28;20044;-78
2022/07/23 04:10:24;;;;;;;8.80;4.22;;;31.50;36.40;;;;;;6274790;28;20339;-78
2022/07/23 04:13:25;;;;;;;7.82;4.38;;;31.40;36.20;;;;;;6257285;28;20025;-78
2022/07/23 04:16:28;;;;;;;5.50;4.22;;;31.40;36.20;;;;;;6280646;28;20029;-77
2022/07/23 04:19:30;;;;;;;5.85;3.88;;;31.40;36.60;;;;;;6257488;28;20039;-78
2022/07/23 04:22:37;;;;;;;10.68;4.68;;;31.40;36.70;;;;;;6271278;28;20052;-77
2022/07/23 04:25:38;;;;;;;6.13;3.88;;;31.40;36.70;;;;;;6288595;28;20151;-77
2022/07/23 04:28:40;;;;;;;8.60;5.00;;;31.30;36.50;;;;;;6274302;28;20039;-77
2022/07/23 04:31:41;;;;;;;6.65;4.53;;;31.30;36.50;;;;;;6257116;28;20037;-75
2022/07/23 04:34:42;;;;;;;10.15;4.40;;;31.20;37.30;;;;;;6272869;28;20449;-74
2022/07/23 04:37:43;;;;;;;6.57;4.47;;;31.10;38.10;;;;;;6271548;28;20116;-75
2022/07/23 04:40:44;;;;;;;9.20;4.60;;;31.00;38.20;;;;;;6264359;28;20038;-75
2022/07/23 04:43:46;;;;;;;9.57;4.60;;;31.00;38.50;;;;;;6255712;28;20086;-75
2022/07/23 04:46:48;;;;;;;12.25;5.30;;;31.00;38.50;;;;;;6273082;28;20029;-76
2022/07/23 04:49:49;;;;;;;12.70;4.88;;;31.00;38.80;;;;;;6289086;28;20025;-75
2022/07/23 04:52:51;;;;;;;9.40;5.22;;;30.90;39.30;;;;;;6272481;28;20466;-75
2022/07/23 04:55:52;;;;;;;11.40;4.75;;;30.80;39.30;;;;;;6257051;28;20043;-75
2022/07/23 04:58:53;;;;;;;9.80;5.15;;;30.80;39.50;;;;;;6273286;28;20036;-75
2022/07/23 05:01:54;;;;;;;7.50;4.80;;;30.70;40.00;;;;;;6273026;28;20429;-75
2022/07/23 05:04:55;;;;;;;8.38;4.60;;;30.50;40.20;;;;;;6272962;28;20029;-75
2022/07/23 05:07:56;;;;;;;9.43;4.80;;;30.30;40.50;;;;;;6272370;28;20029;-74
2022/07/23 05:10:57;;;;;;;9.77;5.10;;;30.30;40.50;;;;;;6256381;28;20036;-74
2022/07/23 05:13:58;;;;;;;7.53;4.63;;;30.20;41.40;;;;;;6255575;28;20021;-75
2022/07/23 05:16:59;;;;;;;8.15;4.93;;;30.00;41.40;;;;;;6272838;28;20357;-76
2022/07/23 05:20:00;;;;;;;9.65;5.05;;;30.00;41.80;;;;;;6272450;28;20374;-74
2022/07/23 05:23:02;;;;;;;9.15;5.07;;;29.90;42.10;;;;;;6249670;28;20026;-74
2022/07/23 05:26:03;;;;;;;10.35;4.70;;;29.90;42.30;;;;;;6287711;28;20087;-77
2022/07/23 05:29:05;;;;;;;11.88;5.43;;;29.90;42.50;;;;;;6288660;28;20035;-76
2022/07/23 05:32:06;;;;;;;9.25;5.05;;;29.80;43.30;;;;;;6271707;28;20029;-76
2022/07/23 05:35:10;;;;;;;11.00;5.38;;;29.80;44.40;;;;;;6270305;28;20044;-76
2022/07/23 05:38:14;;;;;;;9.32;4.97;;;29.70;44.00;;;;;;6253515;28;20495;-75
2022/07/23 05:41:15;;;;;;;10.45;5.70;;;29.60;44.20;;;;;;6286566;28;20392;-76
2022/07/23 05:44:16;;;;;;;11.93;5.40;;;29.50;45.10;;;;;;6270050;28;20037;-77
2022/07/23 05:47:18;;;;;;;13.38;5.82;;;29.40;46.00;;;;;;6287877;28;20064;-77
2022/07/23 05:50:20;;;;;;;15.18;5.88;;;29.30;46.60;;;;;;6271373;28;20031;-76
2022/07/23 05:53:26;;;;;;;13.20;5.93;;;29.10;47.70;;;;;;6271955;28;20347;-76
2022/07/23 05:56:40;;;;;;;12.07;4.93;;;29.00;47.60;;;;;;6272344;28;20033;-76
2022/07/23 05:59:41;;;;;;;8.73;5.30;;;29.10;47.50;;;;;;6271529;28;20090;-77
2022/07/23 06:02:43;;;;;;;12.70;5.50;;;29.30;47.20;;;;;;6255933;28;20087;-75
2022/07/23 06:05:45;;;;;;;12.05;5.38;;;29.50;47.00;;;;;;6288773;28;20083;-76
2022/07/23 06:08:46;;;;;;;11.60;5.50;;;29.60;46.90;;;;;;6271613;28;20450;-75
2022/07/23 06:11:49;;;;;;;11.35;5.45;;;29.70;47.00;;;;;;6255175;28;20411;-75
2022/07/23 06:14:51;;;;;;;11.45;5.60;;;29.60;47.00;;;;;;6272528;28;20135;-78
2022/07/23 06:17:52;;;;;;;8.63;5.88;;;29.50;47.20;;;;;;6272388;28;20029;-79
2022/07/23 06:20:54;;;;;;;12.68;5.78;;;29.20;47.80;;;;;;6272137;28;20036;-79
2022/07/23 06:23:55;;;;;;;9.23;5.32;;;29.00;48.40;;;;;;6259872;28;20024;-76
2022/07/23 06:26:56;;;;;;;10.32;5.63;;;28.80;49.20;;;;;;6254236;28;20090;-75
2022/07/23 06:29:57;;;;;;;9.65;5.80;;;28.40;49.70;;;;;;6270281;28;20512;-75
2022/07/23 06:32:58;;;;;;;10.52;6.22;;;28.30;50.20;;;;;;6271203;28;20029;-75
2022/07/23 06:35:59;;;;;;;10.05;5.78;;;28.10;50.70;;;;;;6253432;28;20067;-77
2022/07/23 06:39:00;;;;;;;13.75;5.93;;;27.80;51.30;;;;;;6268858;28;20033;-75
2022/07/23 06:42:01;;;;;;;12.88;6.40;;;27.60;51.70;;;;;;6270588;28;20029;-75
2022/07/23 06:45:17;;;;;;;10.05;5.70;;;27.50;52.10;;;;;;6267687;28;20037;-76
2022/07/23 06:48:18;;;;;;;8.63;5.70;;;27.40;52.40;;;;;;6261843;28;20036;-74
2022/07/23 06:51:19;;;;;;;10.27;5.90;;;27.60;52.60;;;;;;6262948;28;20524;-74
2022/07/23 06:54:20;;;;;;;8.68;5.65;;;27.80;52.00;;;;;;6262596;28;20465;-75
2022/07/23 06:57:22;;;;;;;13.10;6.35;;;28.00;51.60;;;;;;6267720;28;20453;-75
2022/07/23 07:00:26;;;;;;;11.82;6.03;;;28.20;51.00;;;;;;6270952;28;20040;-75
2022/07/23 07:03:27;;;;;;;13.98;6.05;;;28.40;50.50;;;;;;6259029;28;20036;-77
2022/07/23 07:06:28;;;;;;;14.05;6.35;;;28.60;50.10;;;;;;6261269;28;20032;-77
2022/07/23 07:09:29;;;;;;;8.50;5.55;;;28.60;49.80;;;;;;6289774;28;20040;-79
2022/07/23 07:12:31;;;;;;;12.10;6.50;;;28.80;49.50;;;;;;6274815;28;20033;-79
2022/07/23 07:15:32;;;;;;;8.45;5.30;;;29.00;49.10;;;;;;6256100;28;20025;-79
2022/07/23 07:18:33;;;;;;;9.50;5.57;;;29.20;48.60;;;;;;6257916;28;20064;-77
2022/07/23 07:21:34;;;;;;;8.95;5.63;;;29.40;48.10;;;;;;6273593;28;20438;-76
2022/07/23 07:24:35;;;;;;;9.68;5.57;;;29.60;47.60;;;;;;6291184;28;20029;-77
2022/07/23 07:27:36;;;;;;;8.82;5.80;;;29.90;47.10;;;;;;6274354;28;20020;-76
2022/07/23 07:30:37;;;;;;;11.57;5.53;;;30.10;46.60;;;;;;6274474;28;20044;-76
2022/07/23 07:33:38;;;;;;;10.48;5.32;;;30.20;46.00;;;;;;6258194;28;20021;-76
2022/07/23 07:36:39;;;;;;;8.57;5.57;;;30.30;45.50;;;;;;6256862;28;20062;-77
2022/07/23 07:39:40;;;;;;;14.50;5.97;;;30.50;45.20;;;;;;6257142;28;20558;-77
2022/07/23 07:42:59;;;;;;;7.35;5.25;;;30.60;45.00;;;;;;6270531;28;20037;-77
2022/07/23 07:46:00;;;;;;;8.00;5.65;;;30.80;44.70;;;;;;6253807;28;20033;-76
2022/07/23 07:49:01;;;;;;;8.35;5.80;;;30.90;44.50;;;;;;6272750;28;20503;-76
2022/07/23 07:52:02;;;;;;;12.77;6.03;;;30.90;44.20;;;;;;6254443;28;20127;-78
2022/07/23 07:55:04;;;;;;;9.90;6.18;;;30.90;44.10;;;;;;6256919;28;20032;-77
2022/07/23 07:58:05;;;;;;;10.13;6.38;;;30.70;44.10;;;;;;6275790;28;20040;-76
2022/07/23 08:01:06;;;;;;;7.18;5.57;;;30.70;44.20;;;;;;6249249;28;20395;-76
2022/07/23 08:04:07;;;;;;;12.25;6.15;;;30.60;44.20;;;;;;6274138;28;20361;-74
2022/07/23 08:07:08;;;;;;;15.45;5.85;;;30.50;44.30;;;;;;6291215;28;20033;-73
2022/07/23 08:10:09;;;;;;;8.13;5.53;;;30.10;45.00;;;;;;6271606;28;20036;-74
2022/07/23 08:13:14;;;;;;;11.95;5.97;;;29.70;46.10;;;;;;6270064;28;20029;-71
2022/07/23 08:16:15;;;;;;;15.43;6.28;;;29.50;46.90;;;;;;6284545;28;20021;-74
2022/07/23 08:19:16;;;;;;;8.25;5.55;;;29.40;47.30;;;;;;6278659;28;20079;-74
2022/07/23 08:22:17;;;;;;;9.63;6.20;;;29.50;47.50;;;;;;6270437;28;20123;-74
2022/07/23 08:25:25;;;;;;;10.10;6.15;;;29.60;47.40;;;;;;6273222;28;20036;-76
2022/07/23 08:28:27;;;;;;;10.43;6.22;;;29.80;47.20;;;;;;6272826;28;20032;-75
2022/07/23 08:31:27;;;;;;;7.55;5.50;;;30.00;46.70;;;;;;6273127;28;20422;-74
2022/07/23 08:34:28;;;;;;;12.05;5.95;;;30.20;46.20;;;;;;6272384;28;20044;-75
2022/07/23 08:37:29;;;;;;;10.90;5.80;;;30.60;45.70;;;;;;6286614;28;20684;-74
2022/07/23 08:40:37;;;;;;;8.60;5.97;;;30.80;45.10;;;;;;6286981;28;20124;-74
2022/07/23 08:43:40;;;;;;;9.20;6.00;;;30.90;44.90;;;;;;6271389;28;20025;-75
2022/07/23 08:46:41;;;;;;;8.48;6.35;;;31.00;44.80;;;;;;6270760;28;20059;-77
2022/07/23 08:49:42;;;;;;;14.00;6.50;;;31.10;44.50;;;;;;6270867;28;20060;-78
2022/07/23 08:52:45;;;;;;;8.80;5.82;;;31.20;44.40;;;;;;6271860;28;20080;-78
2022/07/23 08:55:51;;;;;;;10.85;6.60;;;31.30;44.10;;;;;;6272804;28;20021;-79
2022/07/23 08:58:54;;;;;;;12.55;6.55;;;31.40;43.80;;;;;;6272643;28;20481;-78
2022/07/23 09:01:56;;;;;;;11.18;6.43;;;31.50;43.60;;;;;;6272866;28;20159;-78
2022/07/23 09:04:57;;;;;;;10.02;6.75;;;31.60;43.40;;;;;;6289144;28;20037;-78
2022/07/23 09:08:15;;;;;;;9.13;6.35;;;31.60;43.30;;;;;;6273492;28;20029;-78
2022/07/23 09:11:17;;;;;;;10.30;6.20;;;31.50;43.40;;;;;;6287914;28;20021;-77
2022/07/23 09:14:43;;;;;;;13.02;6.13;;;31.50;43.40;;;;;;6272085;28;20036;-77
2022/07/23 09:17:44;;;;;;;8.90;6.22;;;31.50;43.20;;;;;;6259906;28;20358;-77
2022/07/23 09:20:45;;;;;;;10.25;6.20;;;31.70;43.00;;;;;;6268807;28;20060;-77
2022/07/23 09:23:57;;;;;;;9.68;6.03;;;31.80;42.60;;;;;;6270299;28;20029;-76
2022/07/23 09:26:58;;;;;;;15.82;6.40;;;31.90;42.50;;;;;;6267300;28;20048;-77
2022/07/23 09:29:59;;;;;;;9.80;6.30;;;31.90;42.30;;;;;;6269651;28;20033;-78
2022/07/23 09:33:07;;;;;;;8.88;5.78;;;31.90;42.00;;;;;;6271059;28;20036;-77
2022/07/23 09:36:09;;;;;;;8.23;5.90;;;32.10;41.60;;;;;;6285245;28;20444;-77
2022/07/23 09:39:11;;;;;;;11.10;5.70;;;32.30;41.20;;;;;;6285760;28;20162;-78
2022/07/23 09:42:23;;;;;;;7.50;5.30;;;32.30;41.00;;;;;;6269727;28;20059;-78
2022/07/23 09:45:24;;;;;;;10.95;5.63;;;32.40;41.00;;;;;;6269218;28;20114;-76
2022/07/23 09:48:26;;;;;;;9.75;5.68;;;32.50;40.60;;;;;;6270152;28;20033;-76
2022/07/23 09:54:35;;;;;;;7.70;5.65;;;32.80;39.80;;;;;;6271452;28;20041;-77
2022/07/23 09:57:36;;;;;;;9.10;4.88;;;32.90;39.60;;;;;;6271525;28;20063;-77
2022/07/23 10:00:37;;;;;;;14.27;5.22;;;33.00;39.40;;;;;;6271451;28;20044;-77
2022/07/23 10:03:39;;;;;;;11.75;5.47;;;33.00;39.30;;;;;;6287485;28;20400;-78
2022/07/23 10:07:08;;;;;;;7.80;5.13;;;33.00;39.00;;;;;;6287377;28;20086;-77
2022/07/23 10:10:31;;;;;;;9.55;5.43;;;33.10;38.90;;;;;;6244339;28;20928;-77
2022/07/23 10:14:05;;;;;;;9.70;5.00;;;33.20;38.60;;;;;;6240991;28;20467;-77
2022/07/23 10:17:30;;;;;;;12.05;4.97;;;33.30;38.40;;;;;;6243911;28;20041;-78
2022/07/23 10:20:32;;;;;;;9.02;5.90;;;33.40;38.00;;;;;;6244685;28;20033;-78
2022/07/23 10:24:19;;;;;;;11.95;5.32;;;33.40;37.90;;;;;;6244470;28;20056;-77
2022/07/23 10:28:05;;;;;;;11.25;5.72;;;33.40;37.80;;;;;;6153629;28;20042;-77
2022/07/23 10:31:08;;;;;;;7.72;5.05;;;33.50;37.60;;;;;;6081474;29;20048;-77
2022/07/23 10:34:27;;;;;;;7.10;5.43;;;33.50;37.40;;;;;;6097335;29;20631;-78
2022/07/23 10:37:37;;;;;;;7.63;5.20;;;33.30;37.40;;;;;;6102307;29;20036;-77
2022/07/23 10:40:59;;;;;;;8.88;4.97;;;33.20;37.50;;;;;;6086487;29;20099;-77
2022/07/23 10:44:22;;;;;;;9.73;4.93;;;33.10;37.60;;;;;;6087103;29;20758;-78
2022/07/23 10:47:42;;;;;;;6.70;4.97;;;33.10;37.60;;;;;;6115626;29;20488;-77
2022/07/23 10:50:44;;;;;;;9.38;6.20;;;33.10;37.50;;;;;;6127606;29;20110;-77
2022/07/23 10:53:57;;;;;;;7.47;5.45;;;33.20;37.40;;;;;;6110807;29;20044;-77
2022/07/23 10:56:58;;;;;;;8.50;4.93;;;33.30;37.40;;;;;;6111527;29;20496;-78
2022/07/23 11:00:09;;;;;;;9.07;5.63;;;33.40;37.00;;;;;;6128034;29;20047;-78
2022/07/23 11:03:32;;;;;;;7.72;4.95;;;33.60;36.80;;;;;;6143334;28;20042;-77
2022/07/23 11:06:48;;;;;;;7.50;5.47;;;33.70;36.60;;;;;;6202799;28;20437;-78
2022/07/23 11:09:49;;;;;;;7.32;5.28;;;33.90;36.20;;;;;;6276847;28;20100;-81
2022/07/23 11:12:50;;;;;;;11.23;5.15;;;34.20;35.70;;;;;;6291895;28;20510;-80
2022/07/23 11:16:04;;;;;;;7.38;5.40;;;34.50;35.10;;;;;;6292462;28;20036;-80
2022/07/23 11:19:06;;;;;;;8.77;4.95;;;34.90;34.80;;;;;;6278444;28;20037;-80
2022/07/23 11:22:07;;;;;;;7.80;5.25;;;35.40;34.00;;;;;;6276595;28;20044;-80
2022/07/23 11:25:08;;;;;;;5.65;4.78;;;35.80;33.30;;;;;;6292652;28;20029;-81
2022/07/23 11:28:11;;;;;;;9.85;5.72;;;36.10;32.90;;;;;;6273835;28;20063;-82
2022/07/23 11:31:18;;;;;;;7.35;5.00;;;36.20;32.60;;;;;;6274499;28;20025;-81
2022/07/23 11:34:55;;;;;;;8.13;5.53;;;36.30;32.20;;;;;;6271935;28;20025;-82
2022/07/23 11:38:09;;;;;;;10.00;5.97;;;36.30;32.30;;;;;;6221262;28;20034;-79
2022/07/23 11:41:10;;;;;;;9.40;5.32;;;36.00;32.60;;;;;;6205964;28;20030;-80
2022/07/23 11:44:33;;;;;;;10.77;5.90;;;35.90;33.00;;;;;;6215080;28;20212;-80
2022/07/23 11:47:35;;;;;;;8.25;5.75;;;36.10;32.80;;;;;;6213179;28;20057;-78
2022/07/23 11:50:36;;;;;;;6.80;5.03;;;36.50;32.50;;;;;;6237072;28;21691;-81
2022/07/23 11:53:37;;;;;;;7.60;5.22;;;36.70;31.90;;;;;;6206532;28;20567;-81
2022/07/23 11:56:56;;;;;;;8.90;5.28;;;36.70;31.70;;;;;;6219950;28;20032;-80
2022/07/23 12:00:04;;;;;;;8.35;5.15;;;36.40;31.90;;;;;;6222592;28;20069;-79
2022/07/23 12:03:13;;;;;;;7.65;5.18;;;36.20;32.20;;;;;;6221009;28;20343;-78
2022/07/23 12:06:14;;;;;;;6.70;4.70;;;36.40;32.10;;;;;;6219668;28;20785;-76
2022/07/23 12:09:15;;;;;;;7.20;4.88;;;36.40;32.00;;;;;;6220092;28;20038;-79
2022/07/23 12:12:16;;;;;;;8.52;5.10;;;36.40;31.90;;;;;;6257407;28;20081;-77
2022/07/23 12:15:21;;;;;;;13.23;5.72;;;36.40;31.70;;;;;;6273172;28;20032;-80
2022/07/23 12:18:26;;;;;;;7.32;4.97;;;36.20;31.90;;;;;;6274111;28;20021;-79
2022/07/23 12:21:28;;;;;;;8.55;5.20;;;36.00;32.20;;;;;;6274222;28;20029;-80
2022/07/23 12:24:29;;;;;;;9.88;4.82;;;36.00;32.40;;;;;;6274043;28;20036;-78
2022/07/23 12:27:30;;;;;;;10.55;5.45;;;36.20;32.30;;;;;;6273518;28;20361;-78
2022/07/23 12:30:34;;;;;;;7.15;5.20;;;36.50;31.80;;;;;;6274697;28;20040;-80
2022/07/23 12:33:38;;;;;;;10.77;4.93;;;36.80;31.40;;;;;;6276199;28;20016;-80
2022/07/23 12:36:39;;;;;;;7.93;4.68;;;37.00;31.20;;;;;;6274120;28;20067;-78
2022/07/23 12:39:40;;;;;;;14.52;4.80;;;37.20;30.80;;;;;;6288911;28;20449;-79
2022/07/23 12:42:42;;;;;;;7.30;4.80;;;37.30;30.40;;;;;;6271246;28;20055;-80
2022/07/23 12:46:25;;;;;;;7.72;5.35;;;37.40;30.30;;;;;;6274754;28;20124;-79
2022/07/23 12:49:28;;;;;;;6.63;4.97;;;37.60;30.20;;;;;;6214574;28;20044;-79
2022/07/23 12:52:29;;;;;;;6.55;4.60;;;37.70;29.80;;;;;;6219993;28;20104;-79
2022/07/23 12:55:30;;;;;;;10.32;4.82;;;37.80;29.70;;;;;;6187979;28;20437;-78
2022/07/23 12:58:44;;;;;;;6.03;4.55;;;38.00;29.50;;;;;;6219011;28;20069;-81
2022/07/23 13:01:57;;;;;;;9.75;5.07;;;38.30;29.30;;;;;;6185424;28;20716;-82
2022/07/23 13:04:58;;;;;;;7.70;4.70;;;38.60;28.80;;;;;;6223417;28;20033;-81
2022/07/23 13:08:02;;;;;;;8.30;4.82;;;38.90;28.30;;;;;;6206298;28;20065;-78
2022/07/23 13:11:04;;;;;;;8.75;4.30;;;39.20;28.10;;;;;;6219791;28;20030;-81
2022/07/23 13:14:06;;;;;;;7.22;5.40;;;39.40;27.70;;;;;;6220367;28;20054;-79
2022/07/23 13:17:06;;;;;;;9.68;5.20;;;39.10;27.90;;;;;;6220420;28;20122;-81
2022/07/23 13:20:08;;;;;;;6.25;4.47;;;39.00;28.10;;;;;;6220862;28;20038;-79
2022/07/23 13:23:08;;;;;;;10.25;5.30;;;39.30;27.90;;;;;;6221220;28;20045;-79
2022/07/23 13:26:09;;;;;;;5.85;4.80;;;39.40;27.70;;;;;;6277447;28;20041;-79
2022/07/23 13:29:12;;;;;;;6.95;4.75;;;39.70;27.50;;;;;;6303146;28;20496;-80
2022/07/23 13:32:13;;;;;;;8.80;4.95;;;39.90;27.20;;;;;;6272563;28;20108;-78
2022/07/23 13:35:15;;;;;;;10.73;4.82;;;40.30;26.80;;;;;;6273085;28;20040;-80
2022/07/23 13:38:17;;;;;;;8.52;4.40;;;40.40;26.50;;;;;;6273685;28;20430;-79
2022/07/23 13:41:18;;;;;;;7.97;5.00;;;39.70;27.00;;;;;;6274330;28;20080;-79
2022/07/23 13:44:19;;;;;;;7.60;4.80;;;39.50;27.40;;;;;;6273977;28;20075;-80
2022/07/23 13:47:20;;;;;;;7.18;4.60;;;39.60;27.40;;;;;;6272699;28;20411;-80
2022/07/23 13:50:21;;;;;;;6.45;5.05;;;40.00;27.00;;;;;;6272462;28;20033;-80
2022/07/23 13:53:23;;;;;;;11.35;4.80;;;40.30;26.70;;;;;;6252957;28;20099;-78
2022/07/23 13:56:24;;;;;;;5.88;4.50;;;40.50;26.40;;;;;;6271341;28;20025;-78
2022/07/23 13:59:25;;;;;;;8.15;5.32;;;40.80;26.30;;;;;;6271705;28;20660;-81
2022/07/23 14:02:26;;;;;;;10.48;5.63;;;41.00;26.00;;;;;;6271358;28;20128;-79
2022/07/23 14:05:27;;;;;;;6.68;4.72;;;41.10;25.90;;;;;;6286365;28;20025;-78
2022/07/23 14:08:29;;;;;;;7.55;4.75;;;41.40;25.80;;;;;;6273446;28;20029;-77
2022/07/23 14:11:30;;;;;;;5.75;5.05;;;41.70;25.40;;;;;;6291856;28;20661;-80
2022/07/23 14:14:32;;;;;;;5.32;4.78;;;41.80;25.20;;;;;;6277549;28;20025;-80
2022/07/23 14:17:33;;;;;;;7.53;4.70;;;42.00;25.00;;;;;;6293715;28;20021;-81
2022/07/23 14:20:34;;;;;;;7.47;4.90;;;42.20;24.80;;;;;;6276857;28;20016;-81
2022/07/23 14:23:35;;;;;;;7.00;4.40;;;42.20;24.80;;;;;;6264434;28;20032;-78
2022/07/23 14:26:36;;;;;;;12.20;4.68;;;42.10;24.90;;;;;;6273712;28;20017;-75
2022/07/23 14:29:37;;;;;;;10.73;5.10;;;42.30;24.80;;;;;;6274915;28;20533;-79
2022/07/23 14:32:39;;;;;;;7.28;5.32;;;42.50;24.60;;;;;;6275907;28;20021;-78
2022/07/23 14:35:40;;;;;;;7.95;4.90;;;42.50;24.50;;;;;;6275862;28;20028;-81
2022/07/23 14:38:42;;;;;;;8.60;4.78;;;42.50;24.50;;;;;;6275107;28;20033;-77
2022/07/23 14:41:43;;;;;;;6.93;4.78;;;42.40;24.50;;;;;;6275976;28;20442;-77
2022/07/23 14:44:44;;;;;;;6.75;5.28;;;42.00;24.80;;;;;;6274115;28;20040;-78
2022/07/23 14:47:46;;;;;;;8.68;5.78;;;41.50;25.30;;;;;;6289941;28;20144;-78
2022/07/23 14:50:47;;;;;;;7.13;4.70;;;41.00;25.80;;;;;;6289398;28;20029;-78
2022/07/23 14:53:48;;;;;;;5.50;4.75;;;40.80;26.10;;;;;;6272093;28;20051;-78
2022/07/23 14:56:49;;;;;;;6.35;4.50;;;40.90;26.00;;;;;;6273402;28;20047;-77
2022/07/23 14:59:50;;;;;;;10.10;5.22;;;40.70;26.10;;;;;;6273549;28;20067;-77
2022/07/23 15:02:52;;;;;;;10.40;5.00;;;40.60;26.10;;;;;;6256144;28;20036;-78
2022/07/23 15:05:53;;;;;;;10.55;4.75;;;40.40;26.40;;;;;;6275156;28;20043;-78
2022/07/23 15:08:54;;;;;;;8.15;4.95;;;39.70;27.00;;;;;;6275011;28;20021;-78
2022/07/23 15:11:55;;;;;;;6.15;4.80;;;38.90;27.80;;;;;;6275116;28;20116;-78
2022/07/23 15:14:56;;;;;;;10.52;4.53;;;38.30;29.00;;;;;;6290057;28;20036;-77
2022/07/23 15:17:57;;;;;;;7.93;4.57;;;37.80;29.20;;;;;;6275042;28;20032;-77
2022/07/23 15:20:58;;;;;;;8.65;4.90;;;37.40;29.70;;;;;;6271380;28;20112;-78
2022/07/23 15:23:59;;;;;;;9.38;5.30;;;37.00;30.00;;;;;;6272303;28;20029;-79
2022/07/23 15:27:00;;;;;;;7.72;4.65;;;36.70;30.40;;;;;;6272948;28;20055;-79
2022/07/23 15:30:02;;;;;;;7.65;4.95;;;36.70;30.40;;;;;;6273448;28;20093;-84
2022/07/23 15:33:03;;;;;;;8.50;4.88;;;37.30;29.90;;;;;;6271677;28;20017;-82
2022/07/23 15:36:04;;;;;;;10.60;4.95;;;38.20;29.20;;;;;;6272353;28;20037;-82
2022/07/23 15:39:05;;;;;;;8.00;4.88;;;38.80;28.40;;;;;;6263820;28;20029;-79
2022/07/23 15:42:06;;;;;;;10.27;5.05;;;39.20;27.80;;;;;;6273090;28;20037;-79
2022/07/23 15:45:08;;;;;;;6.07;4.72;;;39.50;27.90;;;;;;6288078;28;20059;-78
2022/07/23 15:48:10;;;;;;;9.77;4.93;;;39.20;27.50;;;;;;6271514;28;20029;-78
2022/07/23 15:51:11;;;;;;;7.72;4.82;;;38.90;27.80;;;;;;6273698;28;20044;-77
2022/07/23 15:54:12;;;;;;;6.22;4.30;;;38.70;28.00;;;;;;6272612;28;20044;-78